• Join FlightAware (Why Join?)
  • Login
  • US Flag GB Flag 
17:27 EDT


 

Airport Tracker/Info


-or-


 

Live Flight TrackerFlight Track Log ✈ DAL268 ✈ 24-Apr-2013 ✈ KJFK - LLBG / TLV

Flight Track Log - Related Links

Times and Time Zones

All times are in EDT time to prevent confusion due to time zone crossing. See the DAL268 flight status page for this flight to view local times or setup timezone preferences in your user account.

Time Position Orientation Groundspeed Altitude Reporting Facility
EDT Latitude Longitude Course Direction KTS MPH feet Rate Location/Type
00:01 40.6170 -73.7860 212° Southwest 164 189 700  Level FlightAware
00:01 40.6070 -73.7930 208° Southwest 169 194 1,200 1,920 Climbing FlightAware
00:02 40.5880 -73.8020 200° South 176 203 2,000 1,380 Climbing FlightAware
00:02 40.5650 -73.7820 147° Southeast 222 255 2,500 900 Climbing FlightAware
00:02 40.5600 -73.7630 109° East 233 268 2,700 780 Climbing FlightAware
00:03 40.5630 -73.7400 80° East 237 273 2,900 900 Climbing FlightAware
00:03 40.5820 -73.7060 54° Northeast 241 277 3,400 840 Climbing FlightAware
00:04 40.6000 -73.6770 51° Northeast 260 299 3,700 720 Climbing FlightAware
00:04 40.6240 -73.6390 50° Northeast 280 322 4,100 840 Climbing FlightAware
00:04 40.6460 -73.6040 50° Northeast 296 341 4,500 960 Climbing FlightAware
00:05 40.6740 -73.5600 50° Northeast 318 366 5,000 600 Climbing FlightAware
00:05 40.6980 -73.5240 49° Northeast 330 380 5,100 1,500 Climbing FlightAware
00:06 40.7360 -73.4840 39° Northeast 327 376 6,400 2,160 Climbing FlightAware
00:06 40.7680 -73.4470 41° Northeast 334 384 7,300 2,040 Climbing FlightAware
00:07 40.7990 -73.4140 39° Northeast 336 387 8,300 1,800 Climbing FlightAware
00:07 40.8400 -73.3860 27° Northeast 343 395 9,000 1,800 Climbing FlightAware
00:08 40.8780 -73.3690 19° North 346 398 10,000 1,500 Climbing FlightAware
00:08 40.9500 -73.3320 21° North 377 434 10,800 960 Climbing FlightAware
00:09 41.0200 -73.3010 18° North 411 473 11,400 660 Climbing FlightAware
00:10 41.1040 -73.2630 19° North 454 522 11,800 960 Climbing FlightAware
00:11 41.1860 -73.2240 20° North 472 543 12,800 1,380 Climbing FlightAware
00:11 41.2680 -73.1870 19° North 490 564 13,700 720 Climbing FlightAware
00:12 41.3480 -73.1520 18° North 491 565 13,800 60 Climbing FlightAware
00:13 41.4220 -73.1200 18° North 491 565 13,800 1,800 Level FlightAware
00:14 41.5030 -72.8580 67° East 520 598 17,300 1,800 Climbing FlightAware
00:14 41.5440 -72.7640 60° Northeast 520 598 17,300 2,280 Level FlightAware
00:15 41.6330 -72.6320 48° Northeast 541 623 20,400 2,460 Climbing FlightAware
00:16 41.6890 -72.5420 50° Northeast 540 621 20,800 1,440 Climbing FlightAware
00:16 41.7060 -72.5150 50° Northeast 22,200 2,160 Climbing FlightAware
00:17 41.8000 -72.3580 51° Northeast 552 635 23,000 1,260 Climbing FlightAware
00:18 41.8660 -72.2450 52° Northeast 558 642 23,800 1,260 Climbing FlightAware
00:18 41.9370 -72.1250 51° Northeast 24,800 1,320 Climbing FlightAware
00:19 42.0050 -72.0070 52° Northeast 569 655 25,700 1,200 Climbing FlightAware
00:20 42.0760 -71.8860 52° Northeast 573 659 26,500 1,200 Climbing FlightAware
00:20 42.1420 -71.7760 51° Northeast 569 655 27,400 1,380 Climbing FlightAware
00:21 42.2190 -71.6480 51° Northeast 566 651 28,500 1,320 Climbing FlightAware
00:22 42.2750 -71.5540 51° Northeast 564 649 29,200 1,080 Climbing FlightAware
00:22 42.3500 -71.4270 51° Northeast 566 651 30,000 1,080 Climbing FlightAware
00:23 42.4220 -71.3060 51° Northeast 563 648 30,900 660 Climbing FlightAware
00:24 42.4860 -71.1970 51° Northeast 563 648 31,000 60 Climbing FlightAware
00:25 42.5600 -71.0710 51° Northeast 560 644 31,000  Level FlightAware
00:25 42.6260 -70.9580 52° Northeast 560 644 31,000  Level FlightAware
00:26 42.6900 -70.8480 52° Northeast 559 643 31,000  Level FlightAware
00:27 42.7520 -70.7400 52° Northeast 558 642 31,000  Level FlightAware
00:27 42.8230 -70.6170 52° Northeast 556 640 31,000  Level FlightAware
00:28 42.8970 -70.4880 52° Northeast 557 641 31,000  Level FlightAware
00:29 42.9600 -70.3800 51° Northeast 557 641 31,000  Level FlightAware
00:29 43.0220 -70.2690 53° Northeast 558 642 31,000  Level FlightAware
00:30 43.0900 -70.1500 52° Northeast 554 638 31,000  Level FlightAware
00:31 43.1550 -70.0360 52° Northeast 558 642 31,000  Level FlightAware
00:32 43.2140 -69.9310 52° Northeast 558 642 31,000  Level FlightAware
00:33 43.3130 -69.7540 52° Northeast 559 643 31,000  Level FlightAware
00:33 43.3790 -69.6370 52° Northeast 558 642 31,000  Level FlightAware
00:34 43.4480 -69.5120 53° Northeast 557 641 31,000  Level FlightAware
00:35 43.5330 -69.3590 53° Northeast 553 636 31,000  Level FlightAware
00:35 43.5860 -69.2630 53° Northeast 547 629 31,000  Level FlightAware
00:36 43.6710 -69.1080 53° Northeast 546 628 31,000  Level FlightAware
00:38 43.8010 -68.8700 53° Northeast 31,000  Level FlightAware
00:39 43.8810 -68.7220 53° Northeast 542 624 31,000  Level FlightAware
00:39 43.9410 -68.6120 53° Northeast 546 628 31,000  Level FlightAware
00:40 44.0210 -68.4610 54° Northeast 544 626 31,000  Level FlightAware
00:41 44.0900 -68.3330 53° Northeast 542 624 31,000  Level FlightAware
00:42 44.1490 -68.2200 54° Northeast 540 621 31,000  Level FlightAware
00:42 44.2170 -68.0930 53° Northeast 539 620 31,000  Level FlightAware
00:43 44.2630 -68.0040 54° Northeast 538 619 31,000  Level FlightAware
00:44 44.3320 -67.8730 54° Northeast 539 620 31,000  Level FlightAware
00:44 44.3910 -67.7620 53° Northeast 538 619 31,000  Level FlightAware
00:45 44.4570 -67.6340 54° Northeast 536 617 31,000  Level FlightAware
00:46 44.5250 -67.5040 54° Northeast 535 616 31,000  Level FlightAware
00:47 44.5830 -67.3920 54° Northeast 533 613 31,000  Level FlightAware
00:47 44.6400 -67.2800 54° Northeast 533 613 31,000  Level FlightAware
00:48 44.7030 -67.1560 54° Northeast 533 613 31,000  Level FlightAware
00:49 44.7620 -67.0410 54° Northeast 533 613 31,000  Level FlightAware
00:49 44.8180 -66.9300 55° Northeast 531 611 31,000  Level FlightAware
00:50 44.8810 -66.8050 55° Northeast 530 610 31,000  Level FlightAware
00:51 44.9410 -66.6880 54° Northeast 530 610 31,000  Level FlightAware
00:51 45.0000 -66.5690 55° Northeast 530 610 31,000  Level FlightAware
00:52 45.0580 -66.4530 55° Northeast 529 609 31,000  Level FlightAware
00:53 45.1050 -66.3580 55° Northeast 531 611 31,000  Level FlightAware
00:54 45.1750 -66.2160 55° Northeast 530 610 31,000  Level FlightAware
00:54 45.2330 -66.1000 55° Northeast 523 602 31,000  Level FlightAware
00:55 45.2950 -65.9730 55° Northeast 519 597 31,000  Level FlightAware
00:55 45.3360 -65.8870 56° Northeast 518 596 31,000  Level FlightAware
00:56 45.4040 -65.7480 55° Northeast 521 600 31,000  Level FlightAware
00:57 45.4660 -65.6200 55° Northeast 525 604 31,000  Level FlightAware
00:58 45.5200 -65.5070 56° Northeast 523 602 31,000  Level FlightAware
00:58 45.5890 -65.3650 55° Northeast 525 604 31,000  Level FlightAware
00:59 45.6350 -65.2680 56° Northeast 521 600 31,000  Level FlightAware
01:00 45.6950 -65.1420 56° Northeast 520 598 31,000  Level FlightAware
01:01 45.7560 -65.0130 56° Northeast 520 598 31,000  Level FlightAware
01:01 45.8100 -64.8990 56° Northeast 516 594 31,000  Level FlightAware
01:02 45.8670 -64.7760 56° Northeast 515 593 31,000  Level FlightAware
01:03 45.9130 -64.6800 55° Northeast 515 593 31,000  Level FlightAware
01:03 45.9760 -64.5430 56° Northeast 516 594 31,000  Level FlightAware
01:04 46.0220 -64.4460 56° Northeast 516 594 31,000  Level FlightAware
01:05 46.0670 -64.3490 56° Northeast 516 594 31,000  Level FlightAware
01:05 46.1120 -64.2520 56° Northeast 516 594 31,000  Level FlightAware
01:06 46.1580 -64.1550 56° Northeast 516 594 31,000  Level FlightAware
01:07 46.2150 -64.0330 56° Northeast 516 594 31,000  Level FlightAware
01:08 46.2600 -63.9360 56° Northeast 516 594 31,000  Level FlightAware
01:08 46.3050 -63.8390 56° Northeast 516 594 31,000  Level FlightAware
01:09 46.3510 -63.7410 56° Northeast 516 594 31,000  Level FlightAware
01:10 46.3960 -63.6440 56° Northeast 516 594 31,000  Level FlightAware
01:10 46.4410 -63.5460 56° Northeast 516 594 31,000  Level FlightAware
01:11 46.4870 -63.4480 56° Northeast 516 594 31,000  Level FlightAware
01:12 46.5440 -63.3260 56° Northeast 516 594 31,000  Level FlightAware
01:12 46.5890 -63.2280 56° Northeast 516 594 31,000  Level FlightAware
01:13 46.7333 -62.8167 56° Northeast 540 621 31,000  Level Gander Center
01:14 46.7833 -62.7000 58° Northeast 530 610 31,000  Level Gander Center
01:14 46.8167 -62.6167 60° Northeast 530 610 31,000  Level Moncton Center
01:20 47.2790 -61.5850 60° Northeast 505 581 31,000  Level FlightAware
01:21 47.3340 -61.4520 59° Northeast 507 583 31,000  Level FlightAware
01:21 47.3830 -61.3330 59° Northeast 508 585 31,000  Level FlightAware
01:22 47.4370 -61.2030 58° Northeast 509 586 31,000  Level FlightAware
01:23 47.4800 -61.1000 58° Northeast 508 585 31,000  Level FlightAware
01:23 47.5250 -60.9910 59° Northeast 508 585 31,000  Level FlightAware
01:24 47.5780 -60.8660 58° Northeast 508 585 31,000  Level FlightAware
01:25 47.6200 -60.7650 58° Northeast 508 585 31,000  Level FlightAware
01:25 47.6630 -60.6650 57° Northeast 508 585 31,000  Level FlightAware
01:26 47.7050 -60.5640 58° Northeast 508 585 31,000  Level FlightAware
01:27 47.7480 -60.4630 58° Northeast 508 585 31,000  Level FlightAware
01:28 47.8000 -60.3370 58° Northeast 508 585 31,000  Level FlightAware
01:28 47.8430 -60.2360 58° Northeast 508 585 31,000  Level FlightAware
01:29 47.8850 -60.1350 58° Northeast 508 585 31,000  Level FlightAware
01:30 47.9270 -60.0340 58° Northeast 508 585 31,000  Level FlightAware
01:30 47.9700 -59.9330 58° Northeast 508 585 31,000  Level FlightAware
01:31 48.0230 -59.8070 58° Northeast 508 585 31,000  Level FlightAware
01:32 48.0650 -59.7050 58° Northeast 508 585 31,000  Level FlightAware
01:32 48.1070 -59.6040 58° Northeast 508 585 31,000  Level FlightAware
01:33 48.2167 -59.2000 58° Northeast 510 587 31,000  Level Gander Center
01:34 48.2667 -59.0667 61° Northeast 510 587 31,000  Level Gander Center
01:34 48.3000 -58.9833 59° Northeast 510 587 31,000  Level Moncton Center
01:35 48.3500 -58.8000 68° East 520 598 31,000  Level Moncton Center
01:36 48.4333 -58.6167 56° Northeast 520 598 31,000  Level Moncton Center
01:37 48.4667 -58.5167 63° Northeast 530 610 31,000  Level Gander Center
01:38 48.5500 -58.3000 60° Northeast 530 610 31,000  Level Gander Center
01:43 48.9490 -57.2630 60° Northeast 521 600 31,000  Level FlightAware
01:44 48.9960 -57.1230 63° Northeast 521 600 31,000  Level FlightAware
01:45 49.0330 -57.0120 63° Northeast 521 600 31,000  Level FlightAware
01:45 49.0700 -56.9010 63° Northeast 521 600 31,000  Level FlightAware
01:46 49.1570 -56.6210 65° Northeast 531 611 31,000  Level FlightAware
01:47 49.1920 -56.5150 63° Northeast 531 611 31,000  Level FlightAware
01:48 49.2460 -56.3430 64° Northeast 525 604 31,000  Level FlightAware
01:48 49.2800 -56.2360 64° Northeast 526 605 31,000  Level FlightAware
01:49 49.3440 -56.0330 64° Northeast 526 605 31,000  Level FlightAware
01:50 49.3800 -55.9190 64° Northeast 526 605 31,000  Level FlightAware
01:51 49.4160 -55.8040 64° Northeast 526 605 31,000  Level FlightAware
01:51 49.4530 -55.6900 63° Northeast 526 605 31,000  Level FlightAware
01:52 49.4980 -55.5470 64° Northeast 526 605 31,000  Level FlightAware
01:53 49.5340 -55.4320 64° Northeast 526 605 31,000  Level FlightAware
01:53 49.6020 -55.1950 66° East 31,000  Level FlightAware
01:54 49.6510 -55.0310 65° Northeast 515 593 31,000  Level FlightAware
01:55 49.7090 -54.8400 65° Northeast 514 592 31,000  Level FlightAware
01:56 49.7540 -54.6870 65° Northeast 514 592 31,000  Level FlightAware
01:56 49.7840 -54.5880 65° Northeast 513 590 31,000  Level FlightAware
01:57 49.8280 -54.4370 66° East 513 590 31,000  Level FlightAware
01:58 49.8690 -54.2970 66° East 513 590 31,000  Level FlightAware
01:59 49.9170 -54.1320 66° East 513 590 31,000  Level FlightAware
02:00 49.9670 -53.9590 66° East 515 593 31,000  Level FlightAware
02:00 50.0100 -53.8090 66° East 515 593 31,000 660 Level FlightAware
02:01 50.0530 -53.6570 66° East 520 598 32,000 780 Climbing FlightAware
02:02 50.0880 -53.5350 66° East 519 597 32,000  Level FlightAware
02:02 50.1360 -53.3650 66° East 511 588 32,000  Level FlightAware
02:04 50.1990 -53.1360 67° East 509 586 32,000  Level FlightAware
02:04 50.2300 -53.0210 67° East 509 586 32,000  Level FlightAware
02:05 50.2610 -52.9060 67° East 509 586 32,000  Level FlightAware
02:06 50.2920 -52.7910 67° East 509 586 32,000  Level FlightAware
02:06 50.3240 -52.6750 67° East 509 586 32,000  Level FlightAware
02:07 50.3630 -52.5310 67° East 509 586 32,000  Level FlightAware
02:08 50.4310 -52.2850 66° East 512 589 32,000  Level FlightAware
02:08 50.4690 -52.1430 67° East 516 594 32,000  Level FlightAware
02:09 50.5010 -52.0250 67° East 516 594 32,000  Level FlightAware
02:10 50.5320 -51.9080 67° East 516 594 32,000  Level FlightAware
02:10 50.5640 -51.7900 67° East 516 594 32,000  Level FlightAware
02:11 50.5960 -51.6720 67° East 516 594 32,000  Level FlightAware
02:12 50.6270 -51.5550 67° East 516 594 32,000  Level FlightAware
02:13 50.5000 -52.0667 68° East 503 579 32,000  Level ETMS Enhanced Traffic Management System
02:13 50.6670 -51.4070 67° East 516 594 32,000  Level FlightAware
02:13 50.6667 -51.1333 68° East 500 575 32,000  Level Gander Center
02:13 50.6990 -51.2890 67° East 516 594 32,000  Level FlightAware
02:14 50.7333 -50.9500 60° Northeast 500 575 32,000  Level Gander Center
02:14 50.7300 -51.1710 67° East 516 594 32,000  Level FlightAware
02:15 50.7667 -50.7833 72° East 500 575 32,000  Level Gander Center
02:15 50.7620 -51.0530 67° East 516 594 32,000  Level FlightAware
02:15 50.7940 -50.9350 67° East 516 594 32,000  Level FlightAware
02:15 50.7833 -50.6333 80° East 520 598 32,000  Level Moncton Center
02:16 50.8330 -50.7870 67° East 516 594 32,000  Level FlightAware
02:16 50.8500 -50.4333 62° Northeast 500 575 32,000  Level Moncton Center
02:17 50.8650 -50.6690 67° East 516 594 32,000  Level FlightAware
02:17 50.8833 -50.2333 75° East 510 587 32,000  Level Moncton Center
02:17 50.8970 -50.5510 67° East 516 594 32,000  Level FlightAware
02:18 50.9167 -50.2000 32° Northeast 490 564 32,000  Level Gander Center
02:19 50.9667 -49.9667 71° East 500 575 32,000  Level Gander Center
02:20 50.9833 -49.7667 82° East 490 564 32,000  Level Gander Center
02:21 51.0333 -49.5500 70° East 490 564 32,000  Level Gander Center
02:21 51.0333 -49.5000 90° East 490 564 32,000  Level Gander Center
02:22 51.0000 -50.0000 77° East 493 567 32,000  Level ETMS Enhanced Traffic Management System
02:30 51.3160 -47.6513 79° East 493 567 32,000  Level FlightAware Transoceanic
02:31 51.3424 -47.4363 79° East 493 567 32,000  Level FlightAware Transoceanic
02:32 51.3684 -47.2210 79° East 493 567 32,000  Level FlightAware Transoceanic
02:33 51.3939 -47.0054 79° East 493 567 32,000  Level FlightAware Transoceanic
02:34 51.4191 -46.7896 79° East 493 567 32,000  Level FlightAware Transoceanic
02:35 51.4439 -46.5736 80° East 493 567 32,000  Level FlightAware Transoceanic
02:36 51.4683 -46.3573 80° East 493 567 32,000  Level FlightAware Transoceanic
02:37 51.4923 -46.1408 80° East 493 567 32,000  Level FlightAware Transoceanic
02:38 51.5159 -45.9241 80° East 493 567 32,000  Level FlightAware Transoceanic
02:39 51.5392 -45.7071 80° East 493 567 32,000  Level FlightAware Transoceanic
02:40 51.5620 -45.4900 80° East 493 567 32,000  Level FlightAware Transoceanic
02:41 51.5844 -45.2726 81° East 493 567 32,000  Level FlightAware Transoceanic
02:42 51.6064 -45.0550 81° East 493 567 32,000  Level FlightAware Transoceanic
02:43 51.6280 -44.8372 81° East 493 567 32,000  Level FlightAware Transoceanic
02:44 51.6492 -44.6192 81° East 493 567 32,000  Level FlightAware Transoceanic
02:45 51.6699 -44.4010 81° East 493 567 32,000  Level FlightAware Transoceanic
02:46 51.6903 -44.1826 82° East 493 567 32,000  Level FlightAware Transoceanic
02:47 51.7103 -43.9640 82° East 493 567 32,000  Level FlightAware Transoceanic
02:48 51.7299 -43.7452 82° East 493 567 32,000  Level FlightAware Transoceanic
02:49 51.7491 -43.5262 82° East 493 567 32,000  Level FlightAware Transoceanic
02:50 51.7678 -43.3070 82° East 493 567 32,000  Level FlightAware Transoceanic
02:51 51.7862 -43.0877 82° East 493 567 32,000  Level FlightAware Transoceanic
02:52 51.8041 -42.8681 83° East 493 567 32,000  Level FlightAware Transoceanic
02:53 51.8217 -42.6484 83° East 493 567 32,000  Level FlightAware Transoceanic
02:54 51.8388 -42.4286 83° East 493 567 32,000  Level FlightAware Transoceanic
02:55 51.8555 -42.2086 83° East 493 567 32,000  Level FlightAware Transoceanic
02:56 51.8718 -41.9884 83° East 493 567 32,000  Level FlightAware Transoceanic
02:57 51.8877 -41.7680 83° East 493 567 32,000  Level FlightAware Transoceanic
02:58 51.9032 -41.5475 84° East 493 567 32,000  Level FlightAware Transoceanic
02:59 51.9183 -41.3269 84° East 493 567 32,000  Level FlightAware Transoceanic
03:00 51.9329 -41.1061 84° East 493 567 32,000  Level FlightAware Transoceanic
03:01 51.9472 -40.8851 84° East 493 567 32,000  Level FlightAware Transoceanic
03:02 51.9610 -40.6640 84° East 493 567 32,000  Level FlightAware Transoceanic
03:03 51.9744 -40.4428 84° East 493 567 32,000  Level FlightAware Transoceanic
03:04 51.9874 -40.2215 85° East 493 567 32,000  Level FlightAware Transoceanic
03:05 52.0004 -39.9931 85° East  Level FlightAware Approximate
03:06 52.0019 -39.9864 77° East  Level FlightAware Approximate
03:07 52.0329 -39.7625 77° East  Level FlightAware Approximate
03:07 52.0000 -40.0000 77° East 472 543 32,000  Level ETMS Enhanced Traffic Management System
03:08 52.0635 -39.5383 77° East  Level FlightAware Approximate
03:09 52.0937 -39.3138 78° East  Level FlightAware Approximate
03:10 52.1235 -39.0890 78° East  Level FlightAware Approximate
03:11 52.1528 -38.8639 78° East  Level FlightAware Approximate
03:12 52.1817 -38.6385 78° East  Level FlightAware Approximate
03:13 52.2562 -38.1231 78° East 472 543 32,000  Level FlightAware Transoceanic
03:14 52.2828 -37.9132 78° East 472 543 32,000  Level FlightAware Transoceanic
03:15 52.3091 -37.7032 79° East 472 543 32,000  Level FlightAware Transoceanic
03:16 52.3349 -37.4928 79° East 472 543 32,000  Level FlightAware Transoceanic
03:17 52.3605 -37.2822 79° East 472 543 32,000  Level FlightAware Transoceanic
03:18 52.3856 -37.0714 79° East 472 543 32,000  Level FlightAware Transoceanic
03:19 52.4103 -36.8603 79° East 472 543 32,000  Level FlightAware Transoceanic
03:20 52.4347 -36.6490 79° East 472 543 32,000  Level FlightAware Transoceanic
03:21 52.4587 -36.4375 80° East 472 543 32,000  Level FlightAware Transoceanic
03:22 52.4823 -36.2257 80° East 472 543 32,000  Level FlightAware Transoceanic
03:23 52.5056 -36.0137 80° East 472 543 32,000  Level FlightAware Transoceanic
03:24 52.5284 -35.8015 80° East 472 543 32,000  Level FlightAware Transoceanic
03:25 52.5509 -35.5890 80° East 472 543 32,000  Level FlightAware Transoceanic
03:26 52.5730 -35.3764 80° East 472 543 32,000  Level FlightAware Transoceanic
03:27 52.5947 -35.1635 81° East 472 543 32,000  Level FlightAware Transoceanic
03:28 52.6161 -34.9505 81° East 472 543 32,000  Level FlightAware Transoceanic
03:29 52.6370 -34.7372 81° East 472 543 32,000  Level FlightAware Transoceanic
03:30 52.6576 -34.5237 81° East 472 543 32,000  Level FlightAware Transoceanic
03:31 52.6778 -34.3100 81° East 472 543 32,000  Level FlightAware Transoceanic
03:32 52.6976 -34.0961 81° East 472 543 32,000  Level FlightAware Transoceanic
03:33 52.7170 -33.8821 82° East 472 543 32,000  Level FlightAware Transoceanic
03:34 52.7360 -33.6678 82° East 472 543 32,000  Level FlightAware Transoceanic
03:35 52.7547 -33.4534 82° East 472 543 32,000  Level FlightAware Transoceanic
03:36 52.7729 -33.2387 82° East 472 543 32,000  Level FlightAware Transoceanic
03:37 52.7908 -33.0239 82° East 472 543 32,000  Level FlightAware Transoceanic
03:38 52.8083 -32.8089 82° East 472 543 32,000  Level FlightAware Transoceanic
03:39 52.8254 -32.5938 83° East 472 543 32,000  Level FlightAware Transoceanic
03:40 52.8421 -32.3785 83° East 472 543 32,000  Level FlightAware Transoceanic
03:41 52.8584 -32.1630 83° East 472 543 32,000  Level FlightAware Transoceanic
03:42 52.8743 -31.9474 83° East 472 543 32,000  Level FlightAware Transoceanic
03:43 52.8899 -31.7316 83° East 472 543 32,000  Level FlightAware Transoceanic
03:44 52.9050 -31.5156 83° East 472 543 32,000  Level FlightAware Transoceanic
03:45 52.9198 -31.2995 84° East 472 543 32,000  Level FlightAware Transoceanic
03:46 52.9341 -31.0833 84° East 472 543 32,000  Level FlightAware Transoceanic
03:47 52.9481 -30.8669 84° East 472 543 32,000  Level FlightAware Transoceanic
03:48 52.9617 -30.6504 84° East 472 543 32,000  Level FlightAware Transoceanic
03:49 52.9748 -30.4337 84° East 472 543 32,000  Level FlightAware Transoceanic
03:50 52.9876 -30.2169 84° East 472 543 32,000  Level FlightAware Transoceanic
03:51 53.0010 -29.9829 84° East  Level FlightAware Approximate
03:52 53.0014 -29.9658 86° East  Level FlightAware Approximate
03:53 53.0110 -29.7312 86° East  Level FlightAware Approximate
03:53 53.0000 -30.0000 86° East 515 593 32,000  Level ETMS Enhanced Traffic Management System
03:54 53.0201 -29.4965 86° East  Level FlightAware Approximate
03:55 53.0287 -29.2625 86° East  Level FlightAware Approximate
03:56 53.0368 -29.0284 87° East  Level FlightAware Approximate
03:57 53.0445 -28.7943 87° East  Level FlightAware Approximate
03:58 53.0518 -28.5600 87° East  Level FlightAware Approximate
03:59 53.0585 -28.3257 87° East  Level FlightAware Approximate
04:00 53.0706 -27.8603 88° East 515 593 32,000  Level FlightAware Transoceanic
04:01 53.0761 -27.6221 88° East 515 593 32,000  Level FlightAware Transoceanic
04:02 53.0811 -27.3839 88° East 515 593 32,000  Level FlightAware Transoceanic
04:03 53.0856 -27.1457 88° East 515 593 32,000  Level FlightAware Transoceanic
04:04 53.0897 -26.9074 88° East 515 593 32,000  Level FlightAware Transoceanic
04:05 53.0933 -26.6691 89° East 515 593 32,000  Level FlightAware Transoceanic
04:06 53.0964 -26.4307 89° East 515 593 32,000  Level FlightAware Transoceanic
04:07 53.0990 -26.1923 89° East 515 593 32,000  Level FlightAware Transoceanic
04:08 53.1011 -25.9539 89° East 515 593 32,000  Level FlightAware Transoceanic
04:09 53.1028 -25.7154 89° East 515 593 32,000  Level FlightAware Transoceanic
04:10 53.1040 -25.4770 90° East 515 593 32,000  Level FlightAware Transoceanic
04:11 53.1047 -25.2385 90° East 515 593 32,000  Level FlightAware Transoceanic
04:12 53.1049 -25.0000 90° East 515 593 32,000  Level FlightAware Transoceanic
04:13 53.1047 -24.7615 90° East 515 593 32,000  Level FlightAware Transoceanic
04:14 53.1040 -24.5230 90° East 515 593 32,000  Level FlightAware Transoceanic
04:15 53.1028 -24.2846 91° East 515 593 32,000  Level FlightAware Transoceanic
04:16 53.1011 -24.0461 91° East 515 593 32,000  Level FlightAware Transoceanic
04:17 53.0990 -23.8077 91° East 515 593 32,000  Level FlightAware Transoceanic
04:18 53.0964 -23.5693 91° East 515 593 32,000  Level FlightAware Transoceanic
04:19 53.0933 -23.3309 91° East 515 593 32,000  Level FlightAware Transoceanic
04:20 53.0897 -23.0926 92° East 515 593 32,000  Level FlightAware Transoceanic
04:21 53.0856 -22.8543 92° East 515 593 32,000  Level FlightAware Transoceanic
04:22 53.0811 -22.6161 92° East 515 593 32,000  Level FlightAware Transoceanic
04:23 53.0761 -22.3779 92° East 515 593 32,000  Level FlightAware Transoceanic
04:24 53.0706 -22.1397 92° East 515 593 32,000  Level FlightAware Transoceanic
04:25 53.0647 -21.9017 92° East 515 593 32,000  Level FlightAware Transoceanic
04:26 53.0583 -21.6637 93° East 515 593 32,000  Level FlightAware Transoceanic
04:27 53.0514 -21.4257 93° East 515 593 32,000  Level FlightAware Transoceanic
04:28 53.0440 -21.1879 93° East 515 593 32,000  Level FlightAware Transoceanic
04:29 53.0361 -20.9501 93° East 515 593 32,000  Level FlightAware Transoceanic
04:30 53.0278 -20.7124 93° East 515 593 32,000  Level FlightAware Transoceanic
04:31 53.0190 -20.4749 94° East 515 593 32,000  Level FlightAware Transoceanic
04:32 53.0097 -20.2374 94° East 515 593 32,000 60 Level FlightAware Transoceanic
04:33 53.0001 -20.0036 94° East  Level FlightAware Approximate
04:34 52.9902 -19.7699 94° East  Level FlightAware Approximate
04:35 52.9993 -19.7729 90° East  Level FlightAware Approximate
04:36 52.9980 -19.5387 90° East  Level FlightAware Approximate
04:37 52.9964 -19.3044 91° East  Level FlightAware Approximate
04:38 52.9942 -19.0702 91° East  Level FlightAware Approximate
04:39 52.9916 -18.8360 91° East  Level FlightAware Approximate
04:40 52.9886 -18.6018 91° East  Level FlightAware Approximate
04:41 52.9850 -18.3676 91° East  Level FlightAware Approximate
04:42 52.9811 -18.1335 92° East  Level FlightAware Approximate
04:43 52.9766 -17.8995 92° East  Level FlightAware Approximate
04:44 52.9717 -17.6655 92° East  Level FlightAware Approximate
04:45 52.9664 -17.4315 92° East  Level FlightAware Approximate
04:46 52.9605 -17.1976 92° East  Level FlightAware Approximate
04:47 52.9543 -16.9638 92° East  Level FlightAware Approximate
04:48 52.9475 -16.7300 93° East  Level FlightAware Approximate
04:49 52.9403 -16.4964 93° East  Level FlightAware Approximate
04:50 52.9327 -16.2628 93° East  Level FlightAware Approximate
04:51 52.9246 -16.0292 93° East  Level FlightAware Approximate
04:52 52.9160 -15.7958 93° East  Level FlightAware Approximate
04:53 52.9070 -15.5625 94° East  Level FlightAware Approximate
04:54 52.8975 -15.3293 94° East  Level FlightAware Approximate
04:55 52.8876 -15.0961 94° East  Level FlightAware Approximate
04:56 52.8777 -14.8631 94° East  Level FlightAware Approximate
04:57 52.8677 -14.6300 94° East  Level FlightAware Approximate
04:58 52.8573 -14.3971 94° East  Level FlightAware Approximate
04:59 52.8464 -14.1643 94° East  Level FlightAware Approximate
05:00 52.8351 -13.9317 95° East  Level FlightAware Approximate
05:01 52.8233 -13.6991 95° East  Level FlightAware Approximate
05:01 52.8700 -12.5810 95° East 552 635 35,000  Level FlightAware
05:02 52.8110 -13.4667 95° East  Level FlightAware Approximate
05:02 52.8510 -12.3540 98° East 546 628 35,000  Level FlightAware
05:03 52.8370 -12.1910 98° East 546 628 35,000  Level FlightAware
05:03 52.8250 -12.0490 98° East 547 629 35,000  Level FlightAware
05:04 52.8070 -11.8450 98° East 551 634 35,000  Level FlightAware
05:05 52.7950 -11.7050 98° East 552 635 35,000  Level FlightAware
05:05 52.7750 -11.4880 99° East 551 634 35,000  Level FlightAware
05:06 52.7620 -11.3540 99° East 550 633 35,000  Level FlightAware
05:07 52.7330 -11.0450 99° East 550 633 35,000  Level FlightAware
05:08 52.7130 -10.8360 99° East 549 632 35,000  Level FlightAware
05:09 52.6920 -10.6220 99° East 547 629 35,000  Level FlightAware
05:09 52.6810 -10.5150 100° East 546 628 35,000  Level FlightAware
05:10 52.6540 -10.2490 99° East 543 625 35,000  Level FlightAware
05:11 52.6350 -10.0680 100° East 540 621 35,000  Level FlightAware
05:12 52.6160 -9.8820 99° East 537 618 35,000  Level FlightAware
05:13 52.5980 -9.7140 100° East 540 621 35,000  Level FlightAware
05:13 52.5840 -9.5810 100° East 541 623 35,000  Level FlightAware
05:14 52.5620 -9.3780 100° East 541 623 35,000  Level FlightAware
05:15 52.5450 -9.2270 100° East 542 624 35,000  Level FlightAware
05:15 52.5240 -9.0370 100° East 543 625 35,000 -1,440 Level FlightAware
05:16 52.5055 -8.9406 100° East 488 562 33,500 -2,400 Descending FlightAware UK
05:16 52.4969 -8.8668 101° East 490 564 33,500 4,500 Level FlightAware UK
05:16 52.5040 -8.8650 101° East 546 628 35,000  Climbing FlightAware
05:16 52.4886 -8.7940 101° East 490 564 33,500 -2,700 Descending FlightAware UK
05:17 52.4805 -8.7213 100° East 490 564 33,500 3,060 Level FlightAware UK
05:17 52.4850 -8.6950 100° East 545 627 35,000  Climbing FlightAware
05:17 52.4665 -8.5995 100° East 490 564 33,500  Descending FlightAware UK
05:17 52.4690 -8.5640 101° East 545 627 35,000  Climbing FlightAware
05:17 52.4580 -8.5264 101° East 488 562 33,500 -4,740 Descending FlightAware UK
05:18 52.4522 -8.4778 101° East 488 562 33,500  Level FlightAware UK
05:18 52.4436 -8.4049 101° East 490 564 33,500 2,880 Level FlightAware UK
05:18 52.4460 -8.3680 101° East 547 629 35,000  Climbing FlightAware
05:18 52.4290 -8.2823 101° East 490 564 33,500 -2,580 Descending FlightAware UK
05:19 52.4202 -8.2092 101° East 496 571 33,500 3,180 Level FlightAware UK
05:19 52.4250 -8.1900 101° East 545 627 35,000  Climbing FlightAware
05:19 52.4056 -8.0872 101° East 496 571 33,500 -2,400 Descending FlightAware UK
05:20 52.3971 -8.0139 101° East 492 566 33,500 2,520 Level FlightAware UK
05:20 52.3980 -7.9660 101° East 545 627 35,000  Climbing FlightAware
05:20 52.3795 -7.8683 101° East 492 566 33,500 -2,460 Descending FlightAware UK
05:20 52.3703 -7.7957 102° East 494 568 33,500 4,260 Level FlightAware UK
05:20 52.3780 -7.8010 102° East 545 627 35,000  Climbing FlightAware
05:21 52.3612 -7.7235 102° East 494 568 33,500 -2,760 Descending FlightAware UK
05:21 52.3521 -7.6510 102° East 492 566 33,500 3,000 Level FlightAware UK
05:21 52.3570 -7.6310 102° East 544 626 35,000  Climbing FlightAware
05:22 52.3372 -7.5298 102° East 492 566 33,500 -2,520 Descending FlightAware UK
05:22 52.3282 -7.4571 101° East 492 566 33,500 4,080 Level FlightAware UK
05:22 52.3350 -7.4570 101° East 543 625 35,000  Climbing FlightAware
05:22 52.3158 -7.3605 101° East 494 568 33,500 -2,400 Descending FlightAware UK
05:23 52.3064 -7.2882 102° East 494 568 33,500 3,600 Level FlightAware UK
05:23 52.3130 -7.2860 102° East 544 626 35,000  Climbing FlightAware
05:23 52.2939 -7.1918 102° East 492 566 33,500 -2,580 Descending FlightAware UK
05:23 52.2844 -7.1188 102° East 492 566 33,500 3,900 Level FlightAware UK
05:23 52.2910 -7.1120 102° East 544 626 35,000  Climbing FlightAware
05:24 52.2719 -7.0224 102° East 490 564 33,500 -2,460 Descending FlightAware UK
05:24 52.2627 -6.9501 102° East 492 566 33,500 4,260 Level FlightAware UK
05:24 52.2720 -6.9630 102° East 545 627 35,000  Climbing FlightAware
05:24 52.2533 -6.8778 102° East 494 568 33,500 -2,760 Descending FlightAware UK
05:25 52.2437 -6.8057 102° East 494 568 33,500 4,500 Level FlightAware UK
05:25 52.2540 -6.8280 102° East 546 628 35,000  Climbing FlightAware
05:25 52.2340 -6.7335 102° East 492 566 33,500 -2,700 Descending FlightAware UK
05:25 52.2243 -6.6613 102° East 494 568 33,500  Level FlightAware UK
05:26 52.2049 -6.5173 102° East 494 568 33,500 2,460 Level FlightAware UK
05:26 52.2140 -6.5260 102° East 544 626 35,000  Climbing FlightAware
05:27 52.1790 -6.3256 102° East 494 568 33,500  Descending FlightAware UK
05:27 52.1880 -6.3350 102° East 543 625 35,000  Climbing FlightAware
05:27 52.1690 -6.2540 102° East 492 566 33,500 -2,700 Descending FlightAware UK
05:27 52.1591 -6.1824 103° East 490 564 33,500 3,060 Level FlightAware UK
05:27 52.1670 -6.1830 103° East 544 626 35,000  Climbing FlightAware
05:28 52.1389 -6.0385 103° East 490 564 33,500  Descending FlightAware UK
05:28 52.1430 -6.0060 103° East 544 626 35,000  Climbing FlightAware
05:28 52.1222 -5.9190 103° East 494 568 33,500 -2,760 Descending FlightAware UK
05:29 52.1123 -5.8473 103° East 492 566 33,500  Level FlightAware UK
05:29 52.1021 -5.7758 103° East 492 566 33,500  Level FlightAware UK
05:29 52.0884 -5.6804 103° East 492 566 33,500  Level FlightAware UK
05:30 52.0746 -5.5854 103° East 492 566 33,500  Level FlightAware UK
05:30 52.0557 -5.5200 115° Southeast 492 566 33,500  Level FlightAware UK
05:30 52.0277 -5.4390 119° Southeast 492 566 33,500 2,340 Level FlightAware UK
05:31 52.0240 -5.3980 119° Southeast 519 597 35,000  Climbing FlightAware
05:31 51.9852 -5.3164 119° Southeast 496 571 33,500  Descending FlightAware UK
05:31 51.9770 -5.2630 119° Southeast 519 597 35,000  Climbing FlightAware
05:32 51.9430 -5.1943 119° Southeast 494 568 33,500  Descending FlightAware UK
05:32 51.9340 -5.1390 119° Southeast 518 596 35,000  Climbing FlightAware
05:32 51.9004 -5.0730 119° Southeast 492 566 33,500 -2,100 Descending FlightAware UK
05:33 51.8720 -4.9923 120° Southeast 490 564 33,500 2,880 Level FlightAware UK
05:33 51.8760 -4.9700 120° Southeast 517 595 35,000  Climbing FlightAware
05:33 51.8435 -4.9118 120° Southeast 490 564 33,500  Descending FlightAware UK
05:33 51.8300 -4.8400 120° Southeast 518 596 35,000 1,320 Climbing FlightAware
05:34 51.7780 -4.6950 120° Southeast 519 597 35,000 -1,500 Level FlightAware
05:34 51.7429 -4.6312 120° Southeast 494 568 33,500 -2,700 Descending FlightAware UK
05:35 51.7214 -4.5712 120° Southeast 494 568 33,500 4,680 Level FlightAware UK
05:35 51.7340 -4.5690 120° Southeast 522 601 35,000  Climbing FlightAware
05:35 51.7045 -4.4794 120° Southeast 492 566 33,500 -2,220 Descending FlightAware UK
05:35 51.6946 -4.4086 103° East 492 566 33,500 3,300 Level FlightAware UK
05:35 51.7020 -4.3810 103° East 541 623 35,000  Climbing FlightAware
05:36 51.6817 -4.3135 103° East 494 568 33,500 -2,700 Descending FlightAware UK
05:36 51.6722 -4.2428 102° East 494 568 33,500 3,720 Level FlightAware UK
05:36 51.6810 -4.2190 102° East 542 624 35,000  Climbing FlightAware
05:37 51.6574 -4.0991 102° East 494 568 33,500  Descending FlightAware UK
05:37 51.6660 -4.0590 102° East 547 629 35,000  Climbing FlightAware
05:37 51.6438 -3.9051 102° East 494 568 33,500  Descending FlightAware UK
05:37 51.6550 -3.8950 102° East 548 631 35,000  Climbing FlightAware
05:38 51.6366 -3.7838 102° East 494 568 33,500  Descending FlightAware UK
05:38 51.6450 -3.7150 102° East 548 631 35,000  Climbing FlightAware
05:39 51.6253 -3.5890 102° East 494 568 33,500  Descending FlightAware UK
05:39 51.6350 -3.5530 102° East 547 629 35,000  Climbing FlightAware
05:40 51.6137 -3.3954 102° East 492 566 33,500  Descending FlightAware UK
05:40 51.6250 -3.3690 102° East 546 628 35,000  Climbing FlightAware
05:40 51.6063 -3.2737 102° East 492 566 33,500  Descending FlightAware UK
05:40 51.6150 -3.2060 102° East 545 627 35,000 2,040 Climbing FlightAware
05:41 51.6079 -3.0866 95° East 544 626 35,000 -2,100 Level FlightAware ADS-B
05:41 51.5917 -3.0328 95° East 494 568 33,500  Descending FlightAware UK
05:41 51.6000 -2.9579 95° East 544 626 35,000  Climbing FlightAware ADS-B
05:42 51.5824 -2.8880 95° East 492 566 33,500  Descending FlightAware UK
05:42 51.5923 -2.8339 95° East 543 625 35,000  Climbing FlightAware ADS-B
05:42 51.5748 -2.7682 95° East 492 566 33,500  Descending FlightAware UK
05:42 51.5847 -2.7104 95° East 542 624 35,000  Climbing FlightAware ADS-B
05:43 51.5656 -2.6240 95° East 494 568 33,500  Descending FlightAware UK
05:43 51.5768 -2.5877 95° East 541 623 35,000 2,100 Climbing FlightAware ADS-B
05:43 51.5675 -2.4445 96° East 541 623 35,000 -1,740 Level FlightAware ADS-B
05:44 51.5496 -2.3856 96° East 490 564 33,500  Descending FlightAware UK
05:44 51.5593 -2.3209 96° East 541 623 35,000 1,980 Climbing FlightAware ADS-B
05:44 51.5509 -2.1958 96° East 542 624 35,000 -1,680 Level FlightAware ADS-B
05:45 51.5315 -2.1222 96° East 490 564 33,500  Descending FlightAware UK
05:45 51.5423 -2.0711 96° East 542 624 35,000  Climbing FlightAware ADS-B
05:45 51.5230 -2.0028 96° East 490 564 33,500  Descending FlightAware UK
05:46 51.5332 -1.9421 96° East 542 624 35,000  Climbing FlightAware ADS-B
05:46 51.5125 -1.8586 96° East 492 566 33,500  Descending FlightAware UK
05:46 51.5236 -1.8044 96° East 543 625 35,000  Climbing FlightAware ADS-B
05:46 51.5036 -1.7384 96° East 492 566 33,500  Descending FlightAware UK
05:47 51.5147 -1.6830 96° East 543 625 35,000 2,220 Climbing FlightAware ADS-B
05:47 51.5059 -1.5625 97° East 542 624 35,000  Level FlightAware ADS-B
05:48 51.4967 -1.4381 97° East 542 624 35,000 -1,800 Level FlightAware ADS-B
05:48 51.4767 -1.3806 97° East 494 568 33,500  Descending FlightAware UK
05:48 51.4876 -1.3160 97° East 542 624 35,000 2,040 Climbing FlightAware ADS-B
05:49 51.4781 -1.1941 97° East 541 623 35,000 -1,920 Level FlightAware ADS-B
05:49 51.4581 -1.1412 97° East 492 566 33,500  Descending FlightAware UK
05:49 51.4687 -1.0716 97° East 541 623 35,000 1,860 Climbing FlightAware ADS-B
05:50 51.4584 -0.9402 97° East 540 621 35,000 -1,740 Level FlightAware ADS-B
05:50 51.4373 -0.8795 97° East 494 568 33,500  Descending FlightAware UK
05:50 51.4481 -0.8103 97° East 540 621 35,000 2,040 Climbing FlightAware ADS-B
05:51 51.4379 -0.6848 97° East 539 620 35,000 -1,920 Level FlightAware ADS-B
05:51 51.4177 -0.6427 97° East 494 568 33,500  Descending FlightAware UK
05:51 51.4278 -0.5628 97° East 540 621 35,000 1,980 Climbing FlightAware ADS-B
05:52 51.4180 -0.4438 97° East 540 621 35,000 -1,620 Level FlightAware ADS-B
05:52 51.3938 -0.3569 97° East 494 568 33,500  Descending FlightAware UK
05:52 51.4064 -0.3064 97° East 539 620 35,000  Climbing FlightAware ADS-B
05:53 51.3856 -0.2625 97° East 494 568 33,500  Descending FlightAware UK
05:53 51.3960 -0.1861 97° East 539 620 35,000 2,040 Climbing FlightAware ADS-B
05:53 51.3857 -0.0678 98° East 539 620 35,000  Level FlightAware ADS-B
05:54 51.3746 0.0588 98° East 539 620 35,000  Level FlightAware ADS-B
05:54 51.3638 0.1804 98° East 539 620 35,000 -1,860 Level FlightAware ADS-B
05:55 51.3414 0.2337 98° East 494 568 33,500  Descending FlightAware UK
05:55 51.3505 0.3289 98° East 540 621 35,000  Climbing FlightAware ADS-B
05:55 51.3284 0.3753 98° East 494 568 33,500  Descending FlightAware UK
05:56 51.3373 0.4746 98° East 540 621 35,000  Climbing FlightAware ADS-B
05:56 51.3153 0.5177 98° East 494 568 33,500  Descending FlightAware UK
05:56 51.3260 0.5970 98° East 539 620 35,000 1,860 Climbing FlightAware ADS-B
05:57 51.3138 0.7257 99° East 539 620 35,000 -1,440 Level FlightAware ADS-B
05:57 51.2861 0.8244 99° East 494 568 33,500  Descending FlightAware UK
05:57 51.2989 0.8816 99° East 538 619 35,000  Climbing FlightAware ADS-B
05:58 51.2746 0.9419 99° East 494 568 33,500  Descending FlightAware UK
05:58 51.2869 1.0064 99° East 538 619 35,000  Climbing FlightAware ADS-B
05:58 51.2631 1.0593 99° East 494 568 33,500 -2,100 Descending FlightAware UK
05:59 51.2537 1.1540 99° East 494 568 33,500 2,460 Level FlightAware UK
05:59 51.2680 1.2020 99° East 539 620 35,000  Climbing FlightAware
05:59 51.2468 1.2246 99° East 494 568 33,500 -3,780 Descending FlightAware UK
05:59 51.2398 1.2959 99° East 494 568 33,500  Level FlightAware UK
06:00 51.2327 1.3665 99° East 494 568 33,500 4,260 Level FlightAware UK
06:00 51.2490 1.3890 99° East 539 620 35,000  Climbing FlightAware
06:00 51.2253 1.4377 99° East 494 568 33,500 -2,340 Descending FlightAware UK
06:00 51.2156 1.5318 99° East 494 568 33,500 3,000 Level FlightAware UK
06:00 51.2310 1.5640 99° East 539 620 35,000  Climbing FlightAware
06:01 51.2031 1.6249 99° East 494 568 33,500  Descending FlightAware UK
06:01 51.2090 1.7190 99° East 537 618 35,000  Climbing FlightAware
06:01 51.1740 1.8088 99° East 494 568 33,500 -2,100 Descending FlightAware UK
06:02 51.1629 1.8776 104° East 496 571 33,500 4,680 Level FlightAware UK
06:02 51.1820 1.8880 104° East 536 617 35,000  Climbing FlightAware
06:02 51.1521 1.9464 104° East 496 571 33,500  Descending FlightAware UK
06:02 51.1580 2.0440 104° East 536 617 35,000  Climbing FlightAware
06:03 51.1272 2.1071 104° East 496 571 33,500 -2,460 Descending FlightAware UK
06:03 51.1167 2.1759 104° East 496 571 33,500 3,420 Level FlightAware UK
06:03 51.1310 2.2140 104° East 535 616 35,000  Climbing FlightAware
06:04 51.0992 2.2913 104° East 496 571 33,500  Descending FlightAware UK
06:04 51.1050 2.3840 104° East 532 612 35,000  Climbing FlightAware
06:04 51.0746 2.4512 104° East 496 571 33,500  Descending FlightAware UK
06:05 51.0820 2.5370 104° East 532 612 35,000  Climbing FlightAware
06:05 51.0461 2.6341 104° East 494 568 33,500 -1,740 Descending FlightAware UK
06:05 51.0318 2.7248 104° East 494 568 33,500 3,300 Level FlightAware UK
06:06 51.0490 2.7430 104° East 530 610 35,000 2,040 Climbing FlightAware
06:06 51.0110 2.8790 114° Southeast 521 600 35,000  Level FlightAware
06:07 50.9550 3.0440 118° Southeast 521 600 35,000 -1,440 Level FlightAware
06:07 50.9135 3.0920 118° Southeast 494 568 33,500  Descending FlightAware UK
06:08 50.9130 3.1810 118° Southeast 524 603 35,000  Climbing FlightAware
06:08 50.8809 3.2209 118° Southeast 494 568 33,500 -2,700 Descending FlightAware UK
06:08 50.8666 3.2864 109° East 494 568 33,500 3,720 Level FlightAware UK
06:08 50.8800 3.3270 109° East 524 603 35,000  Climbing FlightAware
06:09 50.8473 3.3733 109° East 494 568 33,500  Descending FlightAware UK
06:09 50.8450 3.4840 109° East 523 602 35,000  Climbing FlightAware
06:09 50.8134 3.5252 109° East 492 566 33,500  Descending FlightAware UK
06:10 50.8080 3.6480 109° East 523 602 35,000 1,380 Climbing FlightAware
06:10 50.7800 3.7690 110° East 523 602 35,000  Level FlightAware
06:11 50.7420 3.9360 110° East 523 602 35,000  Level FlightAware
06:12 50.7100 4.0730 110° East 523 602 35,000  Level FlightAware
06:13 50.6700 4.2340 111° Southeast 518 596 35,000 -1,500 Level FlightAware
06:13 50.6319 4.2732 111° Southeast 492 566 33,500 -2,760 Descending FlightAware UK
06:13 50.6112 4.3335 118° Southeast 492 566 33,500 4,500 Level FlightAware UK
06:13 50.6280 4.3530 118° Southeast 517 595 35,000  Climbing FlightAware
06:13 50.5891 4.3911 118° Southeast 494 568 33,500 -2,280 Descending FlightAware UK
06:14 50.5606 4.4692 120° Southeast 494 568 33,500 3,720 Level FlightAware UK
06:14 50.5850 4.4730 120° Southeast 517 595 35,000 1,800 Climbing FlightAware
06:15 50.5200 4.6480 120° Southeast 516 594 35,000  Level FlightAware
06:15 50.4790 4.7550 121° Southeast 515 593 35,000  Level FlightAware
06:16 50.4310 4.8810 121° Southeast 516 594 35,000  Level FlightAware
06:16 50.3870 4.9970 121° Southeast 516 594 35,000  Level FlightAware
06:17 50.3270 5.1550 121° Southeast 516 594 35,000  Level FlightAware
06:18 50.2720 5.3000 121° Southeast 515 593 35,000  Level FlightAware
06:19 50.2290 5.4040 123° Southeast 515 593 35,000  Level FlightAware
06:19 50.1770 5.5400 121° Southeast 515 593 35,000  Level FlightAware
06:20 50.1280 5.6660 121° Southeast 515 593 35,000  Level FlightAware
06:21 50.0690 5.8190 121° Southeast 514 592 35,000  Level FlightAware
06:22 50.0230 5.9360 121° Southeast 512 589 35,000  Level FlightAware
06:22 49.9740 6.0590 122° Southeast 509 586 35,000  Level FlightAware
06:23 49.9190 6.1990 121° Southeast 508 585 35,000  Level FlightAware
06:24 49.8700 6.3230 121° Southeast 508 585 35,000  Level FlightAware
06:24 49.8190 6.4510 122° Southeast 507 583 35,000  Level FlightAware
06:25 49.7630 6.5890 122° Southeast 506 582 35,000  Level FlightAware
06:26 49.7120 6.7150 122° Southeast 511 588 35,000  Level FlightAware
06:26 49.6560 6.8550 122° Southeast 512 589 35,000  Level FlightAware
06:27 49.6060 6.9760 122° Southeast 512 589 35,000  Level FlightAware
06:28 49.5490 7.1150 122° Southeast 513 590 35,000  Level FlightAware
06:29 49.4990 7.2370 122° Southeast 513 590 35,000  Level FlightAware
06:29 49.4480 7.3600 122° Southeast 512 589 35,000  Level FlightAware
06:30 49.3910 7.4970 123° Southeast 513 590 35,000  Level FlightAware
06:31 49.3390 7.6230 122° Southeast 513 590 35,000  Level FlightAware
06:31 49.2830 7.7560 123° Southeast 512 589 35,000  Level FlightAware
06:32 49.2310 7.8800 123° Southeast 511 588 35,000  Level FlightAware
06:33 49.1800 7.9990 123° Southeast 507 583 35,000  Level FlightAware
06:33 49.1110 8.1250 130° Southeast 508 585 35,000  Level FlightAware
06:34 49.0500 8.2280 132° Southeast 508 585 35,000  Level FlightAware
06:35 48.9850 8.3350 133° Southeast 505 581 35,000  Level FlightAware
06:36 48.9080 8.4560 134° Southeast 497 572 35,000  Level FlightAware
06:36 48.8440 8.5570 134° Southeast 497 572 35,000  Level FlightAware
06:37 48.7720 8.6710 134° Southeast 498 573 35,000  Level FlightAware
06:38 48.7080 8.7730 134° Southeast 499 574 35,000  Level FlightAware
06:38 48.6440 8.8740 134° Southeast 500 575 35,000  Level FlightAware
06:39 48.5690 8.9910 134° Southeast 499 574 35,000  Level FlightAware
06:40 48.5040 9.0920 134° Southeast 498 573 35,000  Level FlightAware
06:40 48.4330 9.2040 134° Southeast 497 572 35,000  Level FlightAware
06:41 48.3680 9.3040 134° Southeast 503 579 35,000  Level FlightAware
06:42 48.2930 9.4170 135° Southeast 502 578 35,000  Level FlightAware
06:43 48.2340 9.5080 134° Southeast 501 577 35,000  Level FlightAware
06:43 48.1650 9.6120 135° Southeast 500 575 35,000  Level FlightAware
06:45 48.0050 9.8520 135° Southeast 498 573 35,000  Level FlightAware
06:46 47.9370 9.9530 135° Southeast 497 572 35,000  Level FlightAware
06:46 47.8740 10.0460 135° Southeast 496 571 35,000  Level FlightAware
06:47 47.7960 10.1600 136° Southeast 496 571 35,000  Level FlightAware
06:48 47.7350 10.2480 136° Southeast 495 570 35,000  Level FlightAware
06:48 47.6570 10.3580 136° Southeast 489 563 35,000  Level FlightAware
06:49 47.5910 10.4490 137° Southeast 488 562 35,000  Level FlightAware
06:50 47.5270 10.5500 133° Southeast 488 562 35,000  Level FlightAware
06:50 47.4670 10.6670 127° Southeast 488 562 35,000  Level FlightAware
06:51 47.4100 10.7770 127° Southeast 488 562 35,000  Level FlightAware
06:52 47.3460 10.8990 128° Southeast 487 560 35,000  Level FlightAware
06:53 47.2900 11.0040 128° Southeast 492 566 35,000  Level FlightAware
06:53 47.2330 11.1120 128° Southeast 492 566 35,000  Level FlightAware
06:54 47.1750 11.2220 128° Southeast 486 559 35,000  Level FlightAware
06:55 47.1090 11.3450 128° Southeast 490 564 35,000  Level FlightAware
06:55 47.0530 11.4490 128° Southeast 490 564 35,000  Level FlightAware
06:56 47.0010 11.5450 128° Southeast 485 558 35,000  Level FlightAware
06:57 46.9200 11.6480 139° Southeast 484 557 35,000  Level FlightAware
06:57 46.8490 11.7360 140° Southeast 490 564 35,000  Level FlightAware
06:58 46.7810 11.8220 139° Southeast 490 564 35,000  Level FlightAware
06:59 46.7020 11.9150 141° Southeast 488 562 35,000  Level FlightAware
07:00 46.6310 11.9960 142° Southeast 488 562 35,000  Level FlightAware
07:00 46.5510 12.0890 141° Southeast 481 554 35,000  Level FlightAware
07:01 46.4820 12.1700 141° Southeast 481 554 35,000  Level FlightAware
07:02 46.4100 12.2530 142° Southeast 481 554 35,000  Level FlightAware
07:02 46.3320 12.3430 141° Southeast 480 552 35,000  Level FlightAware
07:03 46.2620 12.4240 141° Southeast 480 552 35,000  Level FlightAware
07:04 46.1810 12.5170 142° Southeast 488 562 35,000  Level FlightAware
07:04 46.1150 12.5940 141° Southeast 482 555 35,000  Level FlightAware
07:05 46.0500 12.6950 133° Southeast 487 560 35,000  Level FlightAware
07:06 45.9870 12.8090 128° Southeast 488 562 35,000  Level FlightAware
07:07 45.9320 12.9090 128° Southeast 488 562 35,000  Level FlightAware
07:07 45.8750 13.0100 129° Southeast 489 563 35,000  Level FlightAware
07:08 45.8120 13.1230 129° Southeast 490 564 35,000  Level FlightAware
07:09 45.7530 13.2260 129° Southeast 489 563 35,000  Level FlightAware
07:09 45.7040 13.3140 129° Southeast 490 564 35,000  Level FlightAware
07:10 45.6300 13.4420 130° Southeast 484 557 35,000  Level FlightAware
07:11 45.5730 13.5400 130° Southeast 483 556 35,000  Level FlightAware
07:11 45.5080 13.6530 129° Southeast 482 555 35,000  Level FlightAware
07:12 45.4510 13.7510 130° Southeast 481 554 35,000  Level FlightAware
07:13 45.3930 13.8500 130° Southeast 481 554 35,000  Level FlightAware
07:14 45.3280 13.9600 130° Southeast 480 552 35,000  Level FlightAware
07:14 45.2710 14.0560 130° Southeast 479 551 35,000  Level FlightAware
07:15 45.2060 14.1680 129° Southeast 479 551 35,000  Level FlightAware
07:16 45.1490 14.2620 131° Southeast 482 555 35,000  Level FlightAware
07:16 45.0900 14.3620 130° Southeast 476 548 35,000  Level FlightAware
07:17 45.0270 14.4680 130° Southeast 475 547 35,000  Level FlightAware
07:18 44.9780 14.5490 131° Southeast 475 547 35,000 180 Level FlightAware
07:18 44.9100 14.6610 131° Southeast 476 548 35,300 780 Climbing FlightAware
07:19 44.8530 14.7550 131° Southeast 475 547 36,200 1,200 Climbing FlightAware
07:20 44.7970 14.8480 130° Southeast 474 545 36,900 540 Climbing FlightAware
07:21 44.7280 14.9610 131° Southeast 475 547 37,000 60 Climbing FlightAware
07:21 44.6700 15.0550 131° Southeast 476 548 37,000  Level FlightAware
07:22 44.6050 15.1610 131° Southeast 475 547 37,000  Level FlightAware
07:23 44.5460 15.2580 130° Southeast 476 548 37,000  Level FlightAware
07:23 44.4880 15.3510 131° Southeast 476 548 37,000  Level FlightAware
07:24 44.4280 15.4470 131° Southeast 476 548 37,000  Level FlightAware
07:25 44.3640 15.5490 131° Southeast 475 547 37,000  Level FlightAware
07:25 44.2980 15.6540 131° Southeast 474 545 37,000  Level FlightAware
07:26 44.2390 15.7490 131° Southeast 473 544 37,000  Level FlightAware
07:27 44.1820 15.8390 131° Southeast 472 543 37,000  Level FlightAware
07:28 44.1120 15.9490 132° Southeast 478 550 37,000  Level FlightAware
07:28 44.0530 16.0430 131° Southeast 477 549 37,000  Level FlightAware
07:29 43.9870 16.1460 132° Southeast 477 549 37,000  Level FlightAware
07:30 43.9270 16.2380 132° Southeast 476 548 37,000  Level FlightAware
07:30 43.8600 16.3430 131° Southeast 478 550 37,000  Level FlightAware
07:31 43.8020 16.4340 131° Southeast 477 549 37,000  Level FlightAware
07:32 43.7410 16.5270 132° Southeast 478 550 37,000  Level FlightAware
07:32 43.6780 16.6240 132° Southeast 477 549 37,000  Level FlightAware
07:33 43.6180 16.7160 132° Southeast 477 549 37,000  Level FlightAware
07:34 43.5580 16.8080 132° Southeast 477 549 37,000  Level FlightAware
07:34 43.5010 16.8930 133° Southeast 478 550 37,000  Level FlightAware
07:35 43.4310 17.0000 132° Southeast 479 551 37,000  Level FlightAware
07:36 43.3650 17.1000 132° Southeast 480 552 37,000  Level FlightAware
07:37 43.3050 17.1900 132° Southeast 482 555 37,000  Level FlightAware
07:37 43.2360 17.2940 132° Southeast 481 554 37,000  Level FlightAware
07:38 43.1770 17.3830 132° Southeast 481 554 37,000  Level FlightAware
07:39 43.1150 17.4740 133° Southeast 481 554 37,000  Level FlightAware
07:39 43.0480 17.5740 132° Southeast 481 554 37,000  Level FlightAware
07:40 42.9900 17.6590 133° Southeast 481 554 37,000  Level FlightAware
07:41 42.9180 17.7650 133° Southeast 481 554 37,000  Level FlightAware
07:42 42.8580 17.8540 133° Southeast 479 551 37,000  Level FlightAware
07:42 42.8000 17.9390 133° Southeast 479 551 37,000  Level FlightAware
07:43 42.7300 18.0410 133° Southeast 479 551 37,000  Level FlightAware
07:44 42.6720 18.1270 133° Southeast 479 551 37,000  Level FlightAware
07:44 42.6040 18.2240 134° Southeast 480 552 37,000  Level FlightAware
07:45 42.5430 18.3130 133° Southeast 480 552 37,000  Level FlightAware
07:46 42.4690 18.4100 136° Southeast 481 554 37,000  Level FlightAware
07:46 42.4050 18.4950 136° Southeast 481 554 37,000  Level FlightAware
07:47 42.3410 18.5780 136° Southeast 480 552 37,000  Level FlightAware
07:48 42.2770 18.6620 136° Southeast 480 552 37,000  Level FlightAware
07:49 42.2060 18.7560 136° Southeast 480 552 37,000  Level FlightAware
07:49 42.1420 18.8390 136° Southeast 481 554 37,000  Level FlightAware
07:50 42.0920 18.9060 135° Southeast 482 555 37,000  Level FlightAware
07:51 42.0050 19.0180 136° Southeast 485 558 37,000  Level FlightAware
07:51 41.9420 19.0990 136° Southeast 485 558 37,000  Level FlightAware
07:52 41.8700 19.1930 136° Southeast 486 559 37,000  Level FlightAware
07:53 41.8050 19.2760 136° Southeast 488 562 37,000  Level FlightAware
07:53 41.7290 19.3740 136° Southeast 489 563 37,000  Level FlightAware
07:54 41.6630 19.4580 136° Southeast 490 564 37,000  Level FlightAware
07:55 41.5980 19.5410 136° Southeast 493 567 37,000  Level FlightAware
07:56 41.5020 19.6620 137° Southeast 495 570 37,000  Level FlightAware
07:57 41.4240 19.7620 136° Southeast 499 574 37,000  Level FlightAware
07:57 41.3580 19.8460 136° Southeast 502 578 37,000  Level FlightAware
07:58 41.2890 19.9310 137° Southeast 505 581 37,000  Level FlightAware
07:59 41.2100 20.0300 137° Southeast 507 583 37,000  Level FlightAware
07:59 41.1540 20.1010 136° Southeast 510 587 37,000  Level FlightAware
08:00 41.0700 20.2060 137° Southeast 513 590 37,000  Level FlightAware
08:01 41.0030 20.2890 137° Southeast 508 585 37,000  Level FlightAware
08:01 40.9330 20.3750 137° Southeast 509 586 37,000  Level FlightAware
08:02 40.8610 20.4650 137° Southeast 512 589 37,000  Level FlightAware
08:03 40.7830 20.5610 137° Southeast 513 590 37,000  Level FlightAware
08:03 40.7120 20.6480 137° Southeast 514 592 37,000  Level FlightAware
08:04 40.6330 20.7450 137° Southeast 515 593 37,000  Level FlightAware
08:05 40.5620 20.8310 137° Southeast 516 594 37,000  Level FlightAware
08:06 40.4920 20.9170 137° Southeast 522 601 37,000  Level FlightAware
08:06 40.4110 21.0160 137° Southeast 523 602 37,000  Level FlightAware
08:07 40.3500 21.1140 129° Southeast 517 595 37,000  Level FlightAware
08:08 40.2890 21.2270 125° Southeast 522 601 37,000  Level FlightAware
08:08 40.2300 21.3290 127° Southeast 517 595 37,000  Level FlightAware
08:09 40.1710 21.4290 128° Southeast 521 600 37,000  Level FlightAware
08:10 40.1030 21.5430 128° Southeast 521 600 37,000  Level FlightAware
08:10 40.0430 21.6420 128° Southeast 522 601 37,000  Level FlightAware
08:11 39.9780 21.7540 127° Southeast 517 595 37,000  Level FlightAware
08:12 39.9220 21.8520 127° Southeast 517 595 37,000  Level FlightAware
08:13 39.8640 21.9550 126° Southeast 517 595 37,000  Level FlightAware
08:13 39.7970 22.0700 127° Southeast 518 596 37,000  Level FlightAware
08:14 39.7390 22.1690 127° Southeast 517 595 37,000  Level FlightAware
08:15 39.6810 22.2690 127° Southeast 517 595 37,000  Level FlightAware
08:15 39.6150 22.3820 127° Southeast 517 595 37,000  Level FlightAware
08:16 39.5580 22.4790 127° Southeast 517 595 37,000  Level FlightAware
08:17 39.4920 22.5920 127° Southeast 519 597 37,000  Level FlightAware
08:17 39.4320 22.6940 127° Southeast 519 597 37,000  Level FlightAware
08:18 39.3750 22.7900 128° Southeast 519 597 37,000  Level FlightAware
08:19 39.3060 22.9050 128° Southeast 524 603 37,000  Level FlightAware
08:20 39.2490 23.0030 127° Southeast 518 596 37,000  Level FlightAware
08:20 39.1890 23.1020 128° Southeast 523 602 37,000  Level FlightAware
08:21 39.1220 23.2140 128° Southeast 522 601 37,000  Level FlightAware
08:22 39.0660 23.3080 127° Southeast 521 600 37,000  Level FlightAware
08:22 38.9970 23.4230 128° Southeast 522 601 37,000  Level FlightAware
08:23 38.9500 23.5010 128° Southeast 522 601 37,000  Level FlightAware
08:24 38.9010 23.5850 127° Southeast 522 601 37,000  Level FlightAware
08:24 38.8390 23.6900 127° Southeast 522 601 37,000  Level FlightAware
08:25 38.7900 23.7740 127° Southeast 522 601 37,000  Level FlightAware
08:26 38.7400 23.8580 127° Southeast 522 601 37,000  Level FlightAware
08:26 38.6910 23.9420 127° Southeast 522 601 37,000  Level FlightAware
08:27 38.6290 24.0470 127° Southeast 522 601 37,000  Level FlightAware
08:28 38.5800 24.1310 127° Southeast 522 601 37,000  Level FlightAware
08:29 38.5300 24.2150 127° Southeast 522 601 37,000  Level FlightAware
08:29 38.4810 24.2990 127° Southeast 522 601 37,000  Level FlightAware
08:30 38.4190 24.4040 127° Southeast 522 601 37,000  Level FlightAware
08:31 38.3820 24.4660 127° Southeast 522 601 37,000  Level FlightAware
08:31 38.3200 24.5710 127° Southeast 522 601 37,000  Level FlightAware
08:32 38.2710 24.6540 127° Southeast 522 601 37,000  Level FlightAware
08:35 38.0842 25.0076 124° Southeast  Level Estimated
08:36 38.0055 25.1554 124° Southeast  Level Estimated
08:37 37.9266 25.3029 124° Southeast  Level Estimated
08:38 37.8475 25.4501 124° Southeast  Level Estimated
08:38 37.5430 25.7480 124° Southeast 516 594 37,000  Level FlightAware
08:39 37.7683 25.5970 124° Southeast  Level Estimated
08:39 37.4770 25.8500 129° Southeast 513 590 37,000  Level FlightAware
08:40 37.4200 25.9380 129° Southeast 512 589 37,000  Level FlightAware
08:41 37.3580 26.0340 129° Southeast 511 588 37,000  Level FlightAware
08:41 37.2980 26.1250 130° Southeast 510 587 37,000  Level FlightAware
08:42 37.2280 26.2320 129° Southeast 508 585 37,000  Level FlightAware
08:43 37.1710 26.3180 130° Southeast 508 585 37,000  Level FlightAware
08:43 37.1110 26.4090 130° Southeast 508 585 37,000  Level FlightAware
08:44 37.0340 26.5260 129° Southeast 509 586 37,000  Level FlightAware
08:45 36.9740 26.6160 130° Southeast 508 585 37,000  Level FlightAware
08:46 36.9060 26.7180 130° Southeast 509 586 37,000  Level FlightAware
08:46 36.8470 26.8050 130° Southeast 509 586 37,000  Level FlightAware
08:47 36.7760 26.9140 129° Southeast 509 586 37,000  Level FlightAware
08:48 36.6970 27.0290 131° Southeast 510 587 37,000  Level FlightAware
08:48 36.6500 27.0990 130° Southeast 510 587 37,000  Level FlightAware
08:49 36.5730 27.2130 130° Southeast 510 587 37,000  Level FlightAware
08:50 36.5210 27.2890 130° Southeast 509 586 37,000  Level FlightAware
08:51 36.4420 27.4050 130° Southeast 509 586 37,000  Level FlightAware
08:51 36.3920 27.4780 130° Southeast 510 587 37,000  Level FlightAware
08:52 36.3340 27.5620 131° Southeast 511 588 37,000  Level FlightAware
08:53 36.2710 27.6560 130° Southeast 511 588 37,000  Level FlightAware
08:53 36.2060 27.7510 130° Southeast 511 588 37,000  Level FlightAware
08:54 36.1550 27.8280 129° Southeast 511 588 37,000  Level FlightAware
08:55 36.1030 27.9040 130° Southeast 511 588 37,000  Level FlightAware
08:56 35.9870 28.0650 132° Southeast 520 598 37,000  Level FlightAware
08:56 35.9250 28.1530 131° Southeast 522 601 37,000  Level FlightAware
08:57 35.8510 28.2580 131° Southeast 524 603 37,000  Level FlightAware
08:58 35.7880 28.3480 131° Southeast 525 604 37,000  Level FlightAware
08:58 35.7190 28.4470 131° Southeast 525 604 37,000  Level FlightAware
08:59 35.6540 28.5380 131° Southeast 524 603 37,000  Level FlightAware
09:00 35.5910 28.6260 131° Southeast 524 603 37,000  Level FlightAware
09:00 35.5160 28.7320 131° Southeast 523 602 37,000  Level FlightAware
09:01 35.4530 28.8200 131° Southeast 522 601 37,000  Level FlightAware
09:02 35.3710 28.9340 131° Southeast 515 593 37,000  Level FlightAware
09:03 35.3150 29.0120 131° Southeast 515 593 37,000  Level FlightAware
09:03 35.2380 29.1200 131° Southeast 515 593 37,000  Level FlightAware
09:04 35.1760 29.2050 132° Southeast 515 593 37,000  Level FlightAware
09:05 35.1110 29.2990 130° Southeast 514 592 37,000  Level FlightAware
09:06 35.0160 29.4290 132° Southeast 515 593 37,000  Level FlightAware
09:06 34.9640 29.5050 130° Southeast 515 593 37,000  Level FlightAware
09:07 34.9120 29.5810 130° Southeast 515 593 37,000  Level FlightAware
09:08 34.8130 29.7030 135° Southeast 518 596 37,000  Level FlightAware
09:09 34.7410 29.8000 132° Southeast 520 598 37,000  Level FlightAware
09:09 34.6830 29.8790 132° Southeast 526 605 37,000  Level FlightAware
09:10 34.5850 30.0130 132° Southeast 526 605 37,000  Level FlightAware
09:11 34.5290 30.1290 120° Southeast 527 606 37,000  Level FlightAware
09:12 34.4910 30.2110 119° Southeast 528 608 37,000  Level FlightAware
09:12 34.4240 30.3510 120° Southeast 524 603 37,000  Level FlightAware
09:13 34.3730 30.4560 120° Southeast 525 604 37,000  Level FlightAware
09:14 34.3230 30.5590 120° Southeast 528 608 37,000  Level FlightAware
09:15 34.2380 30.7320 121° Southeast 527 606 37,000  Level FlightAware
09:16 34.1880 30.8350 120° Southeast 528 608 37,000  Level FlightAware
09:16 34.1320 30.9490 121° Southeast 533 613 37,000  Level FlightAware
09:17 34.0840 31.0460 121° Southeast 534 615 37,000  Level FlightAware
09:18 34.0250 31.1660 121° Southeast 533 613 37,000  Level FlightAware
09:18 33.9730 31.2730 120° Southeast 534 615 37,000  Level FlightAware
09:19 33.9220 31.3750 121° Southeast 532 612 37,000  Level FlightAware
09:20 33.8660 31.4880 121° Southeast 533 613 37,000  Level FlightAware
09:20 33.8150 31.5900 121° Southeast 534 615 37,000  Level FlightAware
09:21 33.7650 31.6900 121° Southeast 535 616 37,000  Level FlightAware
09:22 33.7070 31.8060 121° Southeast 536 617 37,000  Level FlightAware
09:23 33.6550 31.9090 121° Southeast 536 617 37,000  Level FlightAware
09:23 33.6030 32.0130 121° Southeast 537 618 37,000  Level FlightAware
09:24 33.5530 32.1120 121° Southeast 538 619 37,000  Level FlightAware
09:25 33.4920 32.2330 121° Southeast 536 617 37,000  Level FlightAware
09:26 33.3670 32.4790 121° Southeast 535 616 37,000 -420 Level FlightAware
09:27 33.3140 32.5820 122° Southeast 536 617 36,100 -1,440 Descending FlightAware
09:28 33.2650 32.6780 121° Southeast 543 625 35,100 -1,560 Descending FlightAware
09:28 33.2030 32.7980 122° Southeast 538 619 33,900 -2,580 Descending FlightAware
09:29 33.1450 32.9120 121° Southeast 541 623 31,300 -3,120 Descending FlightAware
09:30 33.0920 33.0130 122° Southeast 548 631 29,500 -2,760 Descending FlightAware
09:30 33.0410 33.1120 122° Southeast 535 616 27,900 -2,640 Descending FlightAware
09:31 32.9770 33.2350 122° Southeast 509 586 25,800 -2,520 Descending FlightAware
09:32 32.9280 33.3290 122° Southeast 502 578 24,200 -2,280 Descending FlightAware
09:33 32.8750 33.4300 122° Southeast 490 564 22,600 -2,280 Descending FlightAware
09:33 32.8250 33.5250 122° Southeast 479 551 21,000 -2,220 Descending FlightAware
09:34 32.7750 33.6210 122° Southeast 470 541 19,500 -2,160 Descending FlightAware
09:35 32.7290 33.7090 122° Southeast 448 516 18,000 -2,220 Descending FlightAware
09:35 32.6860 33.7900 122° Southeast 432 497 16,600 -2,100 Descending FlightAware
09:36 32.6390 33.8800 122° Southeast 386 444 15,100 -1,800 Descending FlightAware
09:37 32.6040 33.9460 122° Southeast 348 400 14,100 -1,500 Descending FlightAware
09:37 32.5720 34.0060 122° Southeast 318 366 13,100 -1,440 Descending FlightAware
09:38 32.5390 34.0680 122° Southeast 307 353 12,100 -1,440 Descending FlightAware
09:39 32.5070 34.1290 122° Southeast 298 343 11,100 -1,440 Descending FlightAware
09:39 32.4760 34.1730 130° Southeast 296 341 10,300 -1,320 Descending FlightAware
09:40 32.4430 34.2130 134° Southeast 291 335 9,600 -1,200 Descending FlightAware
09:41 32.4140 34.2460 136° Southeast 286 329 9,000 -1,080 Descending FlightAware
09:41 32.4050 34.2560 137° Southeast 284 327 8,900 -540 Descending FlightAware
09:41 32.3830 34.2830 134° Southeast 278 320 8,700 -420 Descending FlightAware
09:41 32.3660 34.3030 135° Southeast 273 314 8,600 -180 Descending FlightAware
09:42 32.3440 34.3300 134° Southeast 273 314 8,600  Level FlightAware
09:42 32.3220 34.3570 134° Southeast 273 314 8,600  Level FlightAware
09:43 32.3140 34.3660 136° Southeast 273 314 8,600  Level FlightAware
09:43 32.2920 34.3940 133° Southeast 273 314 8,600  Level FlightAware
09:46 32.0778 34.7139 115° Southeast  Level FlightAware Approximate
09:47 32.0064 34.8560 125° Southeast  Level FlightAware Approximate
09:48 32.0000 34.8667 125° Southeast  Level FlightAware Approximate
09:49 32.0095 34.8769 125° Southeast  Level Estimated
09:50 32.0095 34.8769 125° Southeast  Level Estimated
09:51 32.0095 34.8769 125° Southeast  Level Estimated
09:52 32.0095 34.8769 125° Southeast  Level Estimated
09:53 32.0095 34.8769 125° Southeast  Level Estimated
09:54 32.0095 34.8769 125° Southeast  Level Estimated
09:55 32.0095 34.8769 125° Southeast  Level Estimated